Terminal Aerodrome Forecast
Issued by NWS Columbia, SC

Home | Current Version | Previous Version | Text Only | Print | Product List | Glossary On
Versions: 1 2 3 4 5 6 7 8 9 10 11 12 13 14 15 16 17 18 19 20 21 22 23 24 25 26 27 28 29 30 31 32 33 34 35 36 37 38 39 40 41 42
600
FTAK31 PAJN 120339 AAA
TAFAGS
TAF AMD
PAGS 120339Z 1204/1224 33010KT P6SM -SHRA OVC080
     FM121000 VRB06KT P6SM SCT060 OVC080
      TEMPO 1210/1214 -RA BKN025
     FM121400 VRB04KT 6SM -RA BR BKN020 OVC035
     FM122100 14007KT P6SM -SHRA SCT025 OVC050
      AMD LTD TO CLD VIS AND WIND=

USA.gov is the U.S. government's official web portal to all federal, state and local government web resources and services.